sensor_id;sensor_type;location;lat;lon;timestamp;P1;durP1;ratioP1;P2;durP2;ratioP2
22883;SDS011;13386;24.786;110.488;2023-04-16T18:02:03;35.63;;;10.48;;
22883;SDS011;13386;24.786;110.488;2023-04-16T18:04:33;27.30;;;9.55;;
22883;SDS011;13386;24.786;110.488;2023-04-16T18:07:03;29.10;;;9.80;;
22883;SDS011;13386;24.786;110.488;2023-04-16T18:09:37;29.90;;;9.63;;
22883;SDS011;13386;24.786;110.488;2023-04-16T18:12:14;31.13;;;10.40;;
22883;SDS011;13386;24.786;110.488;2023-04-16T18:14:44;33.42;;;10.82;;
22883;SDS011;13386;24.786;110.488;2023-04-16T18:17:19;32.00;;;10.38;;
22883;SDS011;13386;24.786;110.488;2023-04-16T18:19:49;36.38;;;10.48;;
22883;SDS011;13386;24.786;110.488;2023-04-16T18:22:24;31.73;;;10.30;;
22883;SDS011;13386;24.786;110.488;2023-04-16T18:25:17;34.13;;;10.30;;
22883;SDS011;13386;24.786;110.488;2023-04-16T18:27:58;31.85;;;10.70;;
22883;SDS011;13386;24.786;110.488;2023-04-16T18:30:29;36.65;;;9.88;;
22883;SDS011;13386;24.786;110.488;2023-04-16T18:33:03;36.08;;;10.27;;
22883;SDS011;13386;24.786;110.488;2023-04-16T18:35:33;31.40;;;10.75;;
22883;SDS011;13386;24.786;110.488;2023-04-16T18:38:03;30.52;;;10.30;;
22883;SDS011;13386;24.786;110.488;2023-04-16T18:40:34;33.67;;;10.52;;
22883;SDS011;13386;24.786;110.488;2023-04-16T18:43:05;31.50;;;10.63;;
22883;SDS011;13386;24.786;110.488;2023-04-16T18:45:36;35.17;;;10.95;;
22883;SDS011;13386;24.786;110.488;2023-04-16T18:48:07;36.72;;;11.80;;
22883;SDS011;13386;24.786;110.488;2023-04-16T18:50:38;38.05;;;11.25;;
22883;SDS011;13386;24.786;110.488;2023-04-16T18:53:08;34.70;;;11.23;;
22883;SDS011;13386;24.786;110.488;2023-04-16T18:55:38;35.67;;;11.30;;
22883;SDS011;13386;24.786;110.488;2023-04-16T18:58:11;38.63;;;12.15;;
22883;SDS011;13386;24.786;110.488;2023-04-16T19:00:41;34.78;;;12.05;;
22883;SDS011;13386;24.786;110.488;2023-04-16T19:03:13;37.65;;;11.40;;
22883;SDS011;13386;24.786;110.488;2023-04-16T19:05:43;37.55;;;12.70;;
22883;SDS011;13386;24.786;110.488;2023-04-16T19:08:16;39.60;;;12.07;;
22883;SDS011;13386;24.786;110.488;2023-04-16T19:10:47;38.35;;;11.98;;
22883;SDS011;13386;24.786;110.488;2023-04-16T19:13:17;36.72;;;12.18;;
22883;SDS011;13386;24.786;110.488;2023-04-16T19:15:47;35.65;;;12.68;;
22883;SDS011;13386;24.786;110.488;2023-04-16T19:18:19;42.90;;;12.35;;
22883;SDS011;13386;24.786;110.488;2023-04-16T19:20:49;36.85;;;12.57;;
22883;SDS011;13386;24.786;110.488;2023-04-16T19:23:19;41.25;;;13.48;;
22883;SDS011;13386;24.786;110.488;2023-04-16T19:25:49;33.47;;;12.55;;
22883;SDS011;13386;24.786;110.488;2023-04-16T19:28:19;35.70;;;12.13;;
22883;SDS011;13386;24.786;110.488;2023-04-16T19:30:49;31.25;;;11.73;;
22883;SDS011;13386;24.786;110.488;2023-04-16T19:33:21;40.72;;;13.02;;
22883;SDS011;13386;24.786;110.488;2023-04-16T19:35:51;39.88;;;11.73;;
22883;SDS011;13386;24.786;110.488;2023-04-16T19:38:21;37.15;;;12.07;;
22883;SDS011;13386;24.786;110.488;2023-04-16T19:40:52;36.80;;;12.20;;
22883;SDS011;13386;24.786;110.488;2023-04-16T19:43:22;39.30;;;11.68;;
22883;SDS011;13386;24.786;110.488;2023-04-16T19:45:52;43.58;;;11.60;;
22883;SDS011;13386;24.786;110.488;2023-04-16T19:48:24;36.75;;;12.02;;
22883;SDS011;13386;24.786;110.488;2023-04-16T19:50:55;37.65;;;11.75;;
22883;SDS011;13386;24.786;110.488;2023-04-16T19:53:25;34.63;;;11.38;;
22883;SDS011;13386;24.786;110.488;2023-04-16T19:55:55;33.50;;;11.88;;
22883;SDS011;13386;24.786;110.488;2023-04-16T19:58:27;33.03;;;12.43;;
22883;SDS011;13386;24.786;110.488;2023-04-16T20:00:58;33.03;;;10.70;;
22883;SDS011;13386;24.786;110.488;2023-04-16T20:03:29;35.72;;;10.13;;
22883;SDS011;13386;24.786;110.488;2023-04-16T20:06:00;33.33;;;11.77;;
22883;SDS011;13386;24.786;110.488;2023-04-16T20:08:31;34.35;;;11.00;;
22883;SDS011;13386;24.786;110.488;2023-04-16T20:11:01;32.70;;;10.02;;
22883;SDS011;13386;24.786;110.488;2023-04-16T20:13:31;32.35;;;10.98;;
22883;SDS011;13386;24.786;110.488;2023-04-16T20:16:03;29.20;;;10.45;;
22883;SDS011;13386;24.786;110.488;2023-04-16T20:18:35;31.83;;;11.23;;
22883;SDS011;13386;24.786;110.488;2023-04-16T20:21:10;34.05;;;10.75;;
22883;SDS011;13386;24.786;110.488;2023-04-16T20:23:41;37.25;;;12.48;;
22883;SDS011;13386;24.786;110.488;2023-04-16T20:26:12;37.08;;;12.30;;
22883;SDS011;13386;24.786;110.488;2023-04-16T20:28:44;33.28;;;11.93;;
22883;SDS011;13386;24.786;110.488;2023-04-16T20:31:14;39.78;;;12.35;;
22883;SDS011;13386;24.786;110.488;2023-04-16T20:33:46;42.95;;;12.43;;
22883;SDS011;13386;24.786;110.488;2023-04-16T20:36:16;32.58;;;11.82;;
22883;SDS011;13386;24.786;110.488;2023-04-16T20:38:46;35.90;;;12.25;;
22883;SDS011;13386;24.786;110.488;2023-04-16T20:41:17;33.80;;;11.50;;
22883;SDS011;13386;24.786;110.488;2023-04-16T20:43:48;34.78;;;12.07;;
22883;SDS011;13386;24.786;110.488;2023-04-16T20:46:18;30.13;;;10.35;;
22883;SDS011;13386;24.786;110.488;2023-04-16T20:48:51;36.58;;;11.07;;
22883;SDS011;13386;24.786;110.488;2023-04-16T20:51:21;36.95;;;11.43;;
22883;SDS011;13386;24.786;110.488;2023-04-16T20:53:53;32.97;;;11.20;;
22883;SDS011;13386;24.786;110.488;2023-04-16T20:56:24;29.60;;;11.10;;
22883;SDS011;13386;24.786;110.488;2023-04-16T20:58:54;31.65;;;10.25;;
22883;SDS011;13386;24.786;110.488;2023-04-16T21:01:25;29.35;;;10.40;;
22883;SDS011;13386;24.786;110.488;2023-04-16T21:03:57;28.38;;;10.18;;
22883;SDS011;13386;24.786;110.488;2023-04-16T21:06:27;34.58;;;10.48;;
22883;SDS011;13386;24.786;110.488;2023-04-16T21:08:58;31.73;;;10.75;;
22883;SDS011;13386;24.786;110.488;2023-04-16T21:11:28;31.77;;;10.60;;
22883;SDS011;13386;24.786;110.488;2023-04-16T21:14:00;32.60;;;9.82;;
22883;SDS011;13386;24.786;110.488;2023-04-16T21:16:30;26.20;;;10.20;;
22883;SDS011;13386;24.786;110.488;2023-04-16T21:19:02;30.38;;;9.85;;
22883;SDS011;13386;24.786;110.488;2023-04-16T21:21:34;32.50;;;10.73;;
22883;SDS011;13386;24.786;110.488;2023-04-16T21:24:04;27.70;;;9.68;;
22883;SDS011;13386;24.786;110.488;2023-04-16T21:26:35;29.73;;;9.77;;
22883;SDS011;13386;24.786;110.488;2023-04-16T21:29:05;33.42;;;10.15;;
22883;SDS011;13386;24.786;110.488;2023-04-16T21:31:35;29.55;;;10.20;;
22883;SDS011;13386;24.786;110.488;2023-04-16T21:34:07;29.40;;;10.23;;
22883;SDS011;13386;24.786;110.488;2023-04-16T21:36:37;36.05;;;10.63;;
22883;SDS011;13386;24.786;110.488;2023-04-16T21:39:07;34.20;;;11.35;;
22883;SDS011;13386;24.786;110.488;2023-04-16T21:41:37;33.55;;;9.77;;
22883;SDS011;13386;24.786;110.488;2023-04-16T21:44:07;33.35;;;10.98;;
22883;SDS011;13386;24.786;110.488;2023-04-16T21:46:38;32.80;;;10.93;;
22883;SDS011;13386;24.786;110.488;2023-04-16T21:49:11;29.60;;;10.80;;
22883;SDS011;13386;24.786;110.488;2023-04-16T21:51:41;33.80;;;11.20;;
22883;SDS011;13386;24.786;110.488;2023-04-16T21:54:11;36.05;;;11.13;;
22883;SDS011;13386;24.786;110.488;2023-04-16T21:56:43;36.67;;;10.55;;
22883;SDS011;13386;24.786;110.488;2023-04-16T21:59:13;29.92;;;10.43;;
22883;SDS011;13386;24.786;110.488;2023-04-16T22:01:43;32.88;;;10.70;;
22883;SDS011;13386;24.786;110.488;2023-04-16T22:04:15;43.42;;;11.23;;
22883;SDS011;13386;24.786;110.488;2023-04-16T22:06:51;34.80;;;11.55;;
22883;SDS011;13386;24.786;110.488;2023-04-16T22:09:22;30.20;;;10.40;;
22883;SDS011;13386;24.786;110.488;2023-04-16T22:11:53;26.50;;;10.85;;
22883;SDS011;13386;24.786;110.488;2023-04-16T22:14:23;31.00;;;10.60;;
22883;SDS011;13386;24.786;110.488;2023-04-16T22:16:54;35.33;;;10.52;;
22883;SDS011;13386;24.786;110.488;2023-04-16T22:19:26;30.95;;;10.77;;
22883;SDS011;13386;24.786;110.488;2023-04-16T22:21:56;30.55;;;11.13;;
22883;SDS011;13386;24.786;110.488;2023-04-16T22:24:26;33.95;;;11.20;;
22883;SDS011;13386;24.786;110.488;2023-04-16T22:26:56;25.05;;;9.85;;
22883;SDS011;13386;24.786;110.488;2023-04-16T22:29:27;30.90;;;10.55;;
22883;SDS011;13386;24.786;110.488;2023-04-16T22:31:57;31.27;;;10.63;;
22883;SDS011;13386;24.786;110.488;2023-04-16T22:34:29;31.90;;;11.07;;
22883;SDS011;13386;24.786;110.488;2023-04-16T22:36:59;30.13;;;10.45;;
22883;SDS011;13386;24.786;110.488;2023-04-16T22:39:30;28.83;;;10.77;;
22883;SDS011;13386;24.786;110.488;2023-04-16T22:42:00;30.00;;;10.20;;
22883;SDS011;13386;24.786;110.488;2023-04-16T22:44:30;28.48;;;10.48;;
22883;SDS011;13386;24.786;110.488;2023-04-16T22:47:00;37.45;;;11.43;;
22883;SDS011;13386;24.786;110.488;2023-04-16T22:49:32;34.85;;;10.50;;
22883;SDS011;13386;24.786;110.488;2023-04-16T22:52:02;30.48;;;10.60;;
22883;SDS011;13386;24.786;110.488;2023-04-16T22:54:32;31.23;;;9.63;;
22883;SDS011;13386;24.786;110.488;2023-04-16T22:57:03;28.88;;;10.13;;
22883;SDS011;13386;24.786;110.488;2023-04-16T22:59:33;28.40;;;9.77;;
22883;SDS011;13386;24.786;110.488;2023-04-16T23:02:03;31.98;;;9.30;;
22883;SDS011;13386;24.786;110.488;2023-04-16T23:04:35;31.88;;;9.77;;
22883;SDS011;13386;24.786;110.488;2023-04-16T23:07:05;29.13;;;10.68;;
22883;SDS011;13386;24.786;110.488;2023-04-16T23:09:35;30.45;;;10.27;;
22883;SDS011;13386;24.786;110.488;2023-04-16T23:12:05;26.42;;;10.20;;
22883;SDS011;13386;24.786;110.488;2023-04-16T23:14:35;29.27;;;9.98;;
22883;SDS011;13386;24.786;110.488;2023-04-16T23:17:05;27.85;;;9.82;;
22883;SDS011;13386;24.786;110.488;2023-04-16T23:19:37;33.53;;;11.60;;
22883;SDS011;13386;24.786;110.488;2023-04-16T23:22:07;36.65;;;11.85;;
22883;SDS011;13386;24.786;110.488;2023-04-16T23:24:38;36.97;;;11.57;;
22883;SDS011;13386;24.786;110.488;2023-04-16T23:27:08;32.00;;;11.48;;
22883;SDS011;13386;24.786;110.488;2023-04-16T23:29:38;40.95;;;12.48;;
22883;SDS011;13386;24.786;110.488;2023-04-16T23:32:08;35.72;;;12.07;;
22883;SDS011;13386;24.786;110.488;2023-04-16T23:34:40;29.48;;;10.93;;
22883;SDS011;13386;24.786;110.488;2023-04-16T23:37:10;36.03;;;11.82;;
22883;SDS011;13386;24.786;110.488;2023-04-16T23:39:40;40.38;;;11.73;;
22883;SDS011;13386;24.786;110.488;2023-04-16T23:42:10;36.88;;;11.50;;
22883;SDS011;13386;24.786;110.488;2023-04-16T23:44:40;35.22;;;11.25;;
22883;SDS011;13386;24.786;110.488;2023-04-16T23:47:11;33.58;;;10.82;;
22883;SDS011;13386;24.786;110.488;2023-04-16T23:49:42;32.47;;;11.95;;
22883;SDS011;13386;24.786;110.488;2023-04-16T23:52:13;38.55;;;12.43;;
22883;SDS011;13386;24.786;110.488;2023-04-16T23:54:43;35.25;;;12.02;;
22883;SDS011;13386;24.786;110.488;2023-04-16T23:57:13;34.72;;;12.20;;
22883;SDS011;13386;24.786;110.488;2023-04-16T23:59:43;35.35;;;11.77;;
